Time;durP1;ratioP1;P1;durP2;ratioP2;P2;SDS_P1;SDS_P2;PMS_P1;PMS_P2;Temp;Humidity;BMP_temperature;BMP_pressure;BME280_temperature;BME280_humidity;BME280_pressure;Samples;Min_cycle;Max_cycle;Signal;HPM_P1;HPM_P2
2021/07/01 00:00:25;;;;;;;13.32;7.90;;;16.20;84.70;;;;;;5033369;28;19909;-75
2021/07/01 00:02:51;;;;;;;13.13;8.38;;;16.00;85.60;;;;;;5032036;28;20140;-76
2021/07/01 00:05:17;;;;;;;13.80;8.65;;;15.70;87.70;;;;;;5033340;28;20033;-76
2021/07/01 00:07:44;;;;;;;;;;;15.50;89.10;;;;;;5032389;28;20491;-75
2021/07/01 00:10:21;;;;;;;13.13;7.75;;;15.70;88.00;;;;;;5033737;28;19996;-75
2021/07/01 00:12:46;;;;;;;12.88;7.10;;;16.10;85.30;;;;;;5033303;28;20029;-75
2021/07/01 00:15:17;;;;;;;12.40;7.03;;;16.30;84.50;;;;;;5033632;28;20021;-77
2021/07/01 00:17:44;;;;;;;16.30;8.70;;;16.10;84.80;;;;;;5033368;28;20021;-76
2021/07/01 00:20:12;;;;;;;14.57;9.18;;;15.80;86.70;;;;;;5031856;28;20021;-76
2021/07/01 00:22:38;;;;;;;13.02;7.78;;;15.60;88.50;;;;;;5036117;28;20018;-76
2021/07/01 00:25:06;;;;;;;12.18;7.55;;;15.70;87.60;;;;;;5037554;28;20115;-78
2021/07/01 00:27:32;;;;;;;12.73;7.55;;;16.10;85.20;;;;;;5037211;28;20075;-76
2021/07/01 00:29:58;;;;;;;12.85;7.93;;;16.20;84.20;;;;;;5037118;28;20561;-77
2021/07/01 00:32:23;;;;;;;;;;;16.00;85.40;;;;;;5037678;28;20026;-76
2021/07/01 00:34:49;;;;;;;12.32;7.22;;;15.80;86.30;;;;;;5037073;28;19948;-74
2021/07/01 00:37:15;;;;;;;;;;;15.80;86.70;;;;;;5037647;28;20383;-77
2021/07/01 00:39:41;;;;;;;14.18;8.35;;;15.90;87.20;;;;;;5035631;28;19905;-77
2021/07/01 00:42:06;;;;;;;;;;;16.00;86.80;;;;;;5037350;28;20055;-75
2021/07/01 00:44:32;;;;;;;15.05;10.23;;;16.10;87.40;;;;;;5036845;28;19905;-75
2021/07/01 00:46:58;;;;;;;16.20;10.27;;;16.10;88.00;;;;;;5037327;28;20037;-77
2021/07/01 00:49:24;;;;;;;;;;;16.20;87.30;;;;;;5037142;28;20052;-76
2021/07/01 00:51:51;;;;;;;15.75;9.23;;;16.30;86.60;;;;;;5036734;28;19905;-77
2021/07/01 00:54:17;;;;;;;13.88;8.85;;;16.40;85.40;;;;;;5036702;28;20100;-75
2021/07/01 00:56:42;;;;;;;;;;;16.40;84.70;;;;;;5037152;28;20029;-76
2021/07/01 00:59:08;;;;;;;14.93;8.95;;;16.40;84.30;;;;;;5036601;28;19905;-76
2021/07/01 01:01:35;;;;;;;;;;;16.20;86.20;;;;;;5037213;28;20041;-75
2021/07/01 01:04:00;;;;;;;14.82;7.63;;;16.20;85.70;;;;;;5036825;28;19979;-75
2021/07/01 01:06:26;;;;;;;;;;;16.30;84.70;;;;;;5036945;28;20486;-75
2021/07/01 01:08:53;;;;;;;11.13;6.50;;;16.30;84.80;;;;;;5036078;28;19905;-77
2021/07/01 01:11:25;;;;;;;11.23;6.30;;;16.40;84.20;;;;;;5036883;28;20020;-76
2021/07/01 01:13:52;;;;;;;12.50;6.55;;;16.40;83.80;;;;;;5036706;28;20021;-75
2021/07/01 01:16:18;;;;;;;12.98;7.32;;;16.50;83.70;;;;;;5036296;28;20036;-75
2021/07/01 01:18:45;;;;;;;11.60;6.93;;;16.60;83.20;;;;;;5034958;28;20398;-78
2021/07/01 01:21:12;;;;;;;13.23;7.47;;;16.60;83.30;;;;;;5036177;28;20053;-77
2021/07/01 01:23:38;;;;;;;12.55;6.88;;;16.40;84.50;;;;;;5036083;28;20030;-77
2021/07/01 01:26:04;;;;;;;12.50;7.55;;;16.40;85.30;;;;;;5036159;28;20022;-76
2021/07/01 01:28:30;;;;;;;14.27;7.85;;;16.40;85.60;;;;;;5036087;28;20083;-77
2021/07/01 01:30:56;;;;;;;13.60;7.82;;;16.60;84.70;;;;;;5035918;28;20541;-75
2021/07/01 01:33:23;;;;;;;13.38;7.30;;;16.70;83.80;;;;;;5036061;28;20129;-75
2021/07/01 01:35:49;;;;;;;12.60;7.32;;;16.70;82.80;;;;;;5036032;28;20032;-74
2021/07/01 01:38:15;;;;;;;;;;;16.50;83.30;;;;;;5036182;28;20041;-77
2021/07/01 01:40:47;;;;;;;12.05;7.00;;;16.30;84.70;;;;;;5035817;28;19905;-76
2021/07/01 01:43:17;;;;;;;14.10;8.52;;;16.20;85.60;;;;;;5035776;28;20107;-77
2021/07/01 01:45:43;;;;;;;12.80;8.73;;;16.30;86.30;;;;;;5035764;28;20100;-75
2021/07/01 01:48:10;;;;;;;14.63;8.18;;;16.40;86.20;;;;;;5035443;28;20033;-76
2021/07/01 01:50:36;;;;;;;20.98;10.63;;;16.40;86.90;;;;;;5034237;28;20029;-76
2021/07/01 01:53:02;;;;;;;17.13;9.32;;;16.00;85.50;;;;;;5035808;28;20032;-76
2021/07/01 01:55:28;;;;;;;;;;;15.70;87.70;;;;;;5036126;28;20024;-77
2021/07/01 01:57:54;;;;;;;13.98;9.05;;;15.70;88.50;;;;;;5035648;28;20000;-77
2021/07/01 02:00:22;;;;;;;14.38;9.18;;;15.80;88.50;;;;;;5035525;28;20028;-77
2021/07/01 02:02:48;;;;;;;14.90;9.13;;;15.80;89.00;;;;;;5035424;28;20036;-75
2021/07/01 02:05:13;;;;;;;;;;;15.70;90.00;;;;;;5036159;28;20159;-75
2021/07/01 02:07:40;;;;;;;15.52;8.98;;;15.60;90.30;;;;;;5035350;28;20000;-75
2021/07/01 02:10:09;;;;;;;16.67;9.65;;;15.60;90.60;;;;;;5035206;28;20025;-75
2021/07/01 02:12:34;;;;;;;24.27;9.38;;;15.60;90.40;;;;;;5035297;28;20028;-77
2021/07/01 02:15:01;;;;;;;18.52;10.85;;;15.70;90.00;;;;;;5033746;28;20018;-76
2021/07/01 02:17:26;;;;;;;21.23;11.35;;;15.70;90.20;;;;;;5035165;28;20060;-76
2021/07/01 02:19:52;;;;;;;20.00;11.20;;;15.60;90.70;;;;;;5035167;28;20025;-77
2021/07/01 02:22:18;;;;;;;;;;;15.70;90.70;;;;;;5035456;28;20040;-76
2021/07/01 02:24:44;;;;;;;19.85;11.60;;;15.70;90.70;;;;;;5035063;28;19905;-76
2021/07/01 02:27:10;;;;;;;;;;;15.70;90.70;;;;;;5035409;28;20029;-77
2021/07/01 02:29:36;;;;;;;16.98;10.18;;;15.60;91.00;;;;;;5033620;28;19984;-77
2021/07/01 02:32:03;;;;;;;17.60;11.20;;;15.80;90.70;;;;;;5034913;28;20037;-76
2021/07/01 02:34:29;;;;;;;17.13;11.18;;;16.00;90.00;;;;;;5034665;28;20029;-76
2021/07/01 02:36:54;;;;;;;16.73;10.80;;;16.10;89.10;;;;;;5034703;28;20038;-76
2021/07/01 02:39:20;;;;;;;;;;;16.10;89.20;;;;;;5035206;28;20099;-75
2021/07/01 02:41:46;;;;;;;18.92;12.23;;;16.10;89.20;;;;;;5033435;28;20396;-76
2021/07/01 02:44:11;;;;;;;;;;;16.10;88.90;;;;;;5034638;28;20037;-75
2021/07/01 02:46:37;;;;;;;15.00;10.27;;;15.90;89.50;;;;;;5034553;28;19905;-75
2021/07/01 02:49:03;;;;;;;;;;;16.00;88.90;;;;;;5034878;28;20025;-75
2021/07/01 02:51:29;;;;;;;15.07;10.32;;;16.10;88.40;;;;;;5034919;28;19905;-77
2021/07/01 02:53:54;;;;;;;;;;;16.00;88.60;;;;;;5034884;28;20029;-76
2021/07/01 02:56:21;;;;;;;15.65;10.13;;;15.80;89.10;;;;;;5034611;28;19912;-77
2021/07/01 02:58:47;;;;;;;15.95;9.70;;;15.80;88.80;;;;;;5033035;28;20018;-75
2021/07/01 03:01:14;;;;;;;18.95;11.00;;;15.90;88.60;;;;;;5034323;28;20094;-76
2021/07/01 03:03:40;;;;;;;14.43;9.23;;;15.60;88.30;;;;;;5034282;28;20017;-77
2021/07/01 03:06:05;;;;;;;14.70;9.13;;;15.40;89.80;;;;;;5034229;28;20071;-78
2021/07/01 03:08:31;;;;;;;12.63;8.32;;;15.50;89.60;;;;;;5034233;28;20441;-77
2021/07/01 03:10:57;;;;;;;13.48;8.95;;;15.60;88.50;;;;;;5033847;28;20037;-76
2021/07/01 03:13:22;;;;;;;;;;;15.80;87.50;;;;;;5034759;28;20021;-75
2021/07/01 03:15:48;;;;;;;14.77;7.97;;;15.70;87.50;;;;;;5034399;28;19988;-76
2021/07/01 03:18:14;;;;;;;;;;;15.60;88.20;;;;;;5033093;28;20029;-76
2021/07/01 03:20:40;;;;;;;15.45;9.60;;;15.40;88.70;;;;;;5033809;28;20391;-75
2021/07/01 03:23:05;;;;;;;;;;;15.20;90.30;;;;;;5034162;28;20025;-75
2021/07/01 03:25:31;;;;;;;18.42;10.15;;;15.20;90.30;;;;;;5033751;28;19905;-75
2021/07/01 03:27:57;;;;;;;;;;;15.00;90.60;;;;;;5034486;28;20033;-75
2021/07/01 03:30:23;;;;;;;20.02;10.20;;;14.70;91.20;;;;;;5032271;28;19909;-77
2021/07/01 03:32:49;;;;;;;14.07;8.95;;;14.70;91.40;;;;;;5033619;28;20128;-76
2021/07/01 03:35:15;;;;;;;15.52;9.73;;;14.90;90.70;;;;;;5033592;28;20021;-75
2021/07/01 03:37:40;;;;;;;15.90;9.38;;;15.20;89.80;;;;;;5033293;28;20045;-76
2021/07/01 03:40:10;;;;;;;;;;;15.10;89.60;;;;;;5033936;28;20193;-76
2021/07/01 03:42:36;;;;;;;14.45;9.52;;;15.00;90.00;;;;;;5033699;28;19948;-75
2021/07/01 03:45:05;;;;;;;11.13;6.72;;;15.10;90.20;;;;;;5033444;28;20024;-78
2021/07/01 03:47:31;;;;;;;13.15;6.80;;;15.30;87.60;;;;;;5032080;28;20029;-76
2021/07/01 03:49:57;;;;;;;13.55;6.60;;;15.40;86.90;;;;;;5033322;28;20032;-78
2021/07/01 03:52:23;;;;;;;;;;;15.40;86.70;;;;;;5033790;28;20045;-74
2021/07/01 03:54:48;;;;;;;13.88;8.40;;;15.40;86.50;;;;;;5033331;28;19905;-76
2021/07/01 03:57:14;;;;;;;20.02;7.97;;;14.80;88.30;;;;;;5032459;28;20021;-76
2021/07/01 03:59:40;;;;;;;12.32;7.85;;;14.60;90.20;;;;;;5033832;28;20040;-74
2021/07/01 04:02:06;;;;;;;16.45;9.00;;;14.50;90.50;;;;;;5033150;28;20025;-77
2021/07/01 04:04:31;;;;;;;17.10;10.50;;;14.20;91.00;;;;;;5033188;28;20060;-77
2021/07/01 04:06:57;;;;;;;13.68;8.80;;;14.00;91.40;;;;;;5033069;28;20030;-77
2021/07/01 04:09:23;;;;;;;11.95;7.88;;;13.90;92.00;;;;;;5033126;28;20034;-76
2021/07/01 04:11:49;;;;;;;10.85;7.35;;;14.20;91.20;;;;;;5033416;28;20044;-76
2021/07/01 04:14:17;;;;;;;;;;;14.50;90.50;;;;;;5033767;28;20029;-77
2021/07/01 04:16:45;;;;;;;11.57;7.97;;;14.70;90.10;;;;;;5033109;28;19980;-75
2021/07/01 04:19:12;;;;;;;13.57;8.38;;;14.90;88.90;;;;;;5032994;28;20029;-77
2021/07/01 04:21:38;;;;;;;14.40;9.30;;;14.90;89.50;;;;;;5031902;28;20517;-76
2021/07/01 04:24:04;;;;;;;13.77;8.10;;;14.90;88.80;;;;;;5033010;28;20025;-76
2021/07/01 04:26:30;;;;;;;;;;;14.80;89.30;;;;;;5033396;28;20478;-77
2021/07/01 04:28:55;;;;;;;13.35;8.63;;;15.00;88.20;;;;;;5032935;28;19912;-76
2021/07/01 04:31:21;;;;;;;15.45;8.65;;;15.00;88.40;;;;;;5032989;28;20544;-76
2021/07/01 04:33:48;;;;;;;13.07;8.40;;;14.80;89.60;;;;;;5031626;28;20064;-78
2021/07/01 04:36:13;;;;;;;;;;;14.80;89.20;;;;;;5033324;28;20541;-77
2021/07/01 04:38:39;;;;;;;12.80;8.10;;;14.90;88.60;;;;;;5031119;28;20007;-77
2021/07/01 04:41:05;;;;;;;12.85;7.85;;;14.90;88.40;;;;;;5031556;28;20033;-76
2021/07/01 04:43:31;;;;;;;14.68;7.60;;;14.70;88.50;;;;;;5031542;28;20490;-75
2021/07/01 04:45:56;;;;;;;;;;;14.70;88.10;;;;;;5031932;28;20493;-76
2021/07/01 04:48:22;;;;;;;14.00;7.13;;;15.00;85.60;;;;;;5032986;28;19905;-76
2021/07/01 04:50:48;;;;;;;;;;;15.10;84.90;;;;;;5033406;28;20026;-74
2021/07/01 04:53:13;;;;;;;11.07;7.15;;;15.00;85.30;;;;;;5032716;28;19909;-77
2021/07/01 04:55:39;;;;;;;;;;;15.00;85.90;;;;;;5031823;28;20026;-77
2021/07/01 04:58:04;;;;;;;;;;;15.10;85.90;;;;;;5033098;28;19911;-75
2021/07/01 05:00:30;;;;;;;;;;;15.00;87.00;;;;;;5033093;28;19912;-76
2021/07/01 05:02:56;;;;;;;;;;;15.00;87.20;;;;;;5033108;28;19959;-76
2021/07/01 05:05:21;;;;;;;12.48;7.10;;;15.00;87.30;;;;;;5032848;28;20008;-75
2021/07/01 05:07:47;;;;;;;11.32;6.90;;;15.20;87.40;;;;;;5034068;28;20022;-75
2021/07/01 05:10:14;;;;;;;11.10;7.50;;;15.20;87.40;;;;;;5036682;28;20056;-77
2021/07/01 05:12:40;;;;;;;11.02;7.10;;;15.30;87.50;;;;;;5036426;28;20362;-77
2021/07/01 05:15:07;;;;;;;11.13;6.43;;;15.40;86.80;;;;;;5036219;28;20072;-77
2021/07/01 05:17:36;;;;;;;11.38;6.88;;;15.30;87.50;;;;;;5036132;28;20018;-77
2021/07/01 05:20:04;;;;;;;9.98;6.07;;;15.40;87.30;;;;;;5036095;28;20147;-75
2021/07/01 05:22:30;;;;;;;10.93;6.57;;;15.50;87.10;;;;;;5035978;28;20047;-77
2021/07/01 05:24:56;;;;;;;8.70;5.38;;;15.40;87.10;;;;;;5036076;28;20523;-76
2021/07/01 05:27:21;;;;;;;;;;;15.50;87.50;;;;;;5036495;28;20052;-77
2021/07/01 05:29:47;;;;;;;9.43;5.75;;;15.80;86.00;;;;;;5035877;28;19920;-77
2021/07/01 05:32:13;;;;;;;;;;;15.90;85.80;;;;;;5036290;28;20545;-77
2021/07/01 05:34:39;;;;;;;11.05;6.30;;;16.00;85.10;;;;;;5036000;28;19948;-75
2021/07/01 05:37:05;;;;;;;11.27;6.55;;;16.10;84.60;;;;;;5034258;28;20061;-76
2021/07/01 05:39:31;;;;;;;;;;;16.30;84.10;;;;;;5036278;28;20068;-75
2021/07/01 05:41:57;;;;;;;11.70;5.95;;;16.30;83.90;;;;;;5035780;28;19916;-77
2021/07/01 05:44:22;;;;;;;;;;;16.30;84.00;;;;;;5036101;28;20022;-75
2021/07/01 05:46:48;;;;;;;14.40;5.85;;;16.20;84.80;;;;;;5035804;28;19911;-77
2021/07/01 05:49:14;;;;;;;;;;;16.00;85.40;;;;;;5035934;28;20087;-76
2021/07/01 05:51:40;;;;;;;8.52;5.40;;;16.10;85.10;;;;;;5034192;28;19992;-75
2021/07/01 05:56:40;;;;;;;;;;;16.30;84.90;;;;;;5035882;28;20049;-76
2021/07/01 05:59:08;;;;;;;10.13;6.57;;;16.60;83.80;;;;;;5033881;28;19912;-77
2021/07/01 06:01:38;;;;;;;10.27;6.18;;;16.80;83.00;;;;;;5035397;28;20032;-77
2021/07/01 06:04:04;;;;;;;9.65;6.60;;;16.90;82.80;;;;;;5035433;28;20031;-76
2021/07/01 06:06:33;;;;;;;9.75;5.85;;;17.10;82.90;;;;;;5035296;28;20489;-78
2021/07/01 06:09:00;;;;;;;11.50;5.57;;;17.10;83.00;;;;;;5034962;28;20068;-77
2021/07/01 06:11:26;;;;;;;10.98;6.90;;;17.30;83.00;;;;;;5035355;28;20033;-75
2021/07/01 06:13:54;;;;;;;9.98;6.13;;;17.20;83.10;;;;;;5035156;28;20096;-77
2021/07/01 06:16:24;;;;;;;10.85;6.78;;;17.20;84.20;;;;;;5035084;28;20504;-79
2021/07/01 06:18:52;;;;;;;12.20;7.80;;;17.50;83.00;;;;;;5034191;28;20053;-78
2021/07/01 06:21:18;;;;;;;12.93;8.45;;;17.60;82.40;;;;;;5034936;28;20022;-75
2021/07/01 06:23:46;;;;;;;15.63;9.68;;;17.70;82.20;;;;;;5034878;28;20052;-75
2021/07/01 06:26:14;;;;;;;16.85;10.40;;;17.70;82.80;;;;;;5034930;28;20021;-77
2021/07/01 06:28:42;;;;;;;17.02;12.07;;;17.80;83.10;;;;;;5035008;28;20018;-76
2021/07/01 06:31:09;;;;;;;16.05;11.95;;;17.80;83.70;;;;;;5033367;28;20025;-76
2021/07/01 06:33:39;;;;;;;18.42;13.05;;;17.90;83.70;;;;;;5034816;28;20032;-77
2021/07/01 06:36:07;;;;;;;19.33;13.13;;;17.90;83.90;;;;;;5034707;28;20462;-75
2021/07/01 06:38:35;;;;;;;17.42;12.88;;;18.00;83.50;;;;;;5034183;28;20045;-75
2021/07/01 06:41:03;;;;;;;19.98;14.70;;;18.10;83.90;;;;;;5034743;28;20072;-74
2021/07/01 06:43:29;;;;;;;20.88;14.27;;;18.20;83.90;;;;;;5034499;28;20029;-78
2021/07/01 06:45:56;;;;;;;25.73;15.13;;;18.20;84.10;;;;;;5034593;28;20051;-74
2021/07/01 06:48:23;;;;;;;20.67;14.73;;;18.30;84.30;;;;;;5034465;28;20465;-77
2021/07/01 06:50:53;;;;;;;23.85;15.10;;;18.30;84.50;;;;;;5034303;28;20022;-76
2021/07/01 06:53:21;;;;;;;21.60;15.48;;;18.50;83.60;;;;;;5034666;28;20024;-76
2021/07/01 06:55:50;;;;;;;23.42;15.77;;;18.60;83.00;;;;;;5034372;28;20021;-77
2021/07/01 06:58:17;;;;;;;23.55;15.77;;;18.70;82.80;;;;;;5034243;28;20434;-77
2021/07/01 07:00:44;;;;;;;19.73;14.70;;;18.90;82.50;;;;;;5034265;28;20033;-76
2021/07/01 07:03:18;;;;;;;21.77;15.20;;;18.80;82.60;;;;;;5032857;28;20029;-76
2021/07/01 07:05:54;;;;;;;21.77;16.02;;;19.00;81.00;;;;;;5034313;28;20476;-78
2021/07/01 07:08:21;;;;;;;20.60;15.00;;;19.20;80.10;;;;;;5034107;28;20021;-77
2021/07/01 07:10:48;;;;;;;22.58;15.93;;;19.20;80.30;;;;;;5033978;28;20052;-76
2021/07/01 07:13:15;;;;;;;23.08;16.27;;;19.10;80.40;;;;;;5034004;28;20072;-75
2021/07/01 07:15:43;;;;;;;23.65;16.30;;;19.20;79.40;;;;;;5034028;28;20018;-77
2021/07/01 07:18:25;;;;;;;20.27;15.88;;;19.20;78.50;;;;;;5033851;28;20493;-75
2021/07/01 07:21:08;;;;;;;18.67;14.48;;;19.20;78.20;;;;;;5034052;28;20497;-76
2021/07/01 07:23:38;;;;;;;22.20;16.05;;;19.30;78.70;;;;;;5033883;28;20547;-77
2021/07/01 07:26:15;;;;;;;22.10;15.63;;;19.50;77.60;;;;;;5033797;28;20032;-77
2021/07/01 07:28:47;;;;;;;20.73;15.07;;;19.40;78.30;;;;;;5033840;28;20029;-76
2021/07/01 07:31:22;;;;;;;22.25;15.57;;;19.40;78.80;;;;;;5033752;28;20044;-75
2021/07/01 07:33:51;;;;;;;18.17;13.30;;;19.60;78.20;;;;;;5032122;28;20033;-76
2021/07/01 07:36:20;;;;;;;20.90;13.13;;;19.80;76.70;;;;;;5032364;28;20051;-77
2021/07/01 07:38:46;;;;;;;17.45;12.40;;;19.90;75.20;;;;;;4994498;28;20088;-76
2021/07/01 07:41:15;;;;;;;18.63;12.60;;;20.00;74.80;;;;;;4994322;28;20475;-76
2021/07/01 07:43:41;;;;;;;17.52;11.48;;;20.10;73.20;;;;;;4994186;28;20026;-78
2021/07/01 07:46:08;;;;;;;16.85;12.40;;;20.30;73.20;;;;;;4992893;28;20442;-76
2021/07/01 07:48:33;;;;;;;16.88;11.45;;;20.50;73.50;;;;;;4994089;28;20015;-77
2021/07/01 07:51:02;;;;;;;16.45;11.98;;;21.10;72.10;;;;;;4994224;28;20053;-77
2021/07/01 07:53:35;;;;;;;14.98;10.25;;;22.20;67.50;;;;;;4994112;28;20058;-78
2021/07/01 07:56:07;;;;;;;16.92;10.15;;;23.30;64.90;;;;;;4994314;28;20022;-77
2021/07/01 07:58:37;;;;;;;14.95;10.43;;;24.70;58.60;;;;;;4992887;28;20521;-77
2021/07/01 08:01:04;;;;;;;12.32;7.90;;;25.40;56.20;;;;;;4994490;28;20509;-76
2021/07/01 08:03:33;;;;;;;10.80;6.95;;;25.70;55.30;;;;;;4993156;28;20022;-77
2021/07/01 08:06:05;;;;;;;11.30;7.20;;;26.70;52.70;;;;;;4994269;28;20053;-77
2021/07/01 08:08:32;;;;;;;12.07;7.65;;;28.10;48.40;;;;;;4992900;28;20064;-77
2021/07/01 08:11:03;;;;;;;13.70;7.75;;;28.80;47.90;;;;;;4994316;28;20030;-78
2021/07/01 08:13:30;;;;;;;10.85;7.05;;;29.00;47.90;;;;;;4994422;28;20088;-78
2021/07/01 08:15:57;;;;;;;11.70;7.25;;;28.20;50.60;;;;;;4994290;28;20022;-76
2021/07/01 08:18:36;;;;;;;11.38;7.50;;;30.10;46.50;;;;;;4994250;28;20018;-73
2021/07/01 08:21:02;;;;;;;10.18;7.28;;;30.00;46.20;;;;;;4994327;28;20027;-75
2021/07/01 08:23:29;;;;;;;11.63;7.60;;;29.80;45.70;;;;;;4994069;28;20395;-75
2021/07/01 08:25:59;;;;;;;11.02;7.40;;;30.40;45.30;;;;;;4994262;28;20475;-75
2021/07/01 08:28:25;;;;;;;12.13;8.35;;;31.00;44.70;;;;;;4992607;28;20026;-76
2021/07/01 08:30:51;;;;;;;10.32;7.20;;;30.30;44.00;;;;;;4993798;28;20387;-75
2021/07/01 08:33:19;;;;;;;10.75;7.88;;;28.80;48.00;;;;;;4993948;28;20501;-76
2021/07/01 08:35:51;;;;;;;12.15;7.03;;;28.90;48.00;;;;;;4994035;28;20475;-75
2021/07/01 08:38:17;;;;;;;11.10;7.03;;;30.00;46.20;;;;;;5025057;28;20050;-75
2021/07/01 08:40:46;;;;;;;14.88;9.55;;;29.40;45.90;;;;;;5033363;28;20445;-75
2021/07/01 08:43:13;;;;;;;12.60;7.85;;;29.10;46.70;;;;;;5035497;28;20036;-76
2021/07/01 08:46:11;;;;;;;13.80;9.95;;;29.20;45.90;;;;;;5037346;28;20049;-75
2021/07/01 08:48:54;;;;;;;14.45;9.07;;;28.70;46.10;;;;;;5035745;28;20213;-73
2021/07/01 08:51:28;;;;;;;11.77;7.50;;;29.20;46.30;;;;;;5037131;28;20062;-75
2021/07/01 08:54:22;;;;;;;13.60;8.30;;;28.90;46.60;;;;;;5036961;28;20413;-75
2021/07/01 08:56:50;;;;;;;11.18;7.65;;;27.30;49.70;;;;;;5037093;28;20025;-73
2021/07/01 08:59:19;;;;;;;12.13;7.60;;;26.50;52.00;;;;;;5035516;28;20383;-74
2021/07/01 09:01:54;;;;;;;13.38;8.98;;;27.20;52.30;;;;;;5037114;28;20035;-76
2021/07/01 09:04:23;;;;;;;15.38;9.02;;;27.90;49.20;;;;;;5035069;28;20025;-75
2021/07/01 09:07:00;;;;;;;13.75;8.80;;;28.90;48.50;;;;;;5036766;28;20104;-75
2021/07/01 09:09:31;;;;;;;12.18;7.57;;;29.80;47.40;;;;;;5036921;28;20026;-74
2021/07/01 09:12:06;;;;;;;11.85;7.80;;;30.50;46.50;;;;;;5037108;28;20532;-76
2021/07/01 09:14:33;;;;;;;11.55;6.97;;;31.40;44.10;;;;;;5035500;28;20053;-75
2021/07/01 09:17:07;;;;;;;11.02;6.32;;;31.90;43.30;;;;;;5035548;28;20112;-73
2021/07/01 09:19:33;;;;;;;11.88;7.60;;;32.10;42.00;;;;;;5036750;28;20025;-76
2021/07/01 09:22:01;;;;;;;12.15;7.75;;;31.20;43.70;;;;;;5037153;28;20212;-73
2021/07/01 09:24:35;;;;;;;12.98;7.45;;;31.40;43.00;;;;;;5036468;28;20025;-75
2021/07/01 09:27:12;;;;;;;10.07;6.20;;;30.50;44.80;;;;;;5035100;28;20045;-77
2021/07/01 09:29:43;;;;;;;10.45;6.82;;;31.60;43.60;;;;;;5035606;28;20037;-74
2021/07/01 09:32:10;;;;;;;11.70;7.00;;;32.00;43.80;;;;;;5036990;28;20032;-75
2021/07/01 09:34:37;;;;;;;12.63;7.80;;;32.50;42.50;;;;;;5036914;28;20020;-74
2021/07/01 09:37:03;;;;;;;14.05;11.00;;;33.50;39.80;;;;;;5036421;28;20041;-74
2021/07/01 09:39:32;;;;;;;10.23;6.70;;;33.80;40.30;;;;;;5037323;28;20375;-78
2021/07/01 09:42:01;;;;;;;11.00;6.68;;;34.90;38.80;;;;;;5037114;28;20075;-73
2021/07/01 09:44:29;;;;;;;9.85;6.10;;;35.60;37.40;;;;;;5036899;28;20027;-75
2021/07/01 09:46:59;;;;;;;11.48;6.47;;;35.70;37.60;;;;;;5037057;28;20096;-74
2021/07/01 09:49:33;;;;;;;10.52;6.20;;;35.80;36.60;;;;;;5037397;28;20022;-74
2021/07/01 09:52:06;;;;;;;13.35;6.57;;;35.60;37.40;;;;;;5035051;28;20057;-76
2021/07/01 09:54:33;;;;;;;13.00;6.72;;;34.90;38.20;;;;;;5034962;28;20024;-75
2021/07/01 09:57:09;;;;;;;11.68;7.35;;;33.80;38.60;;;;;;5036618;28;20493;-74
2021/07/01 09:59:43;;;;;;;11.63;6.60;;;34.30;39.00;;;;;;5036712;28;20021;-74
2021/07/01 10:02:29;;;;;;;11.73;6.68;;;34.30;38.90;;;;;;5034959;28;20481;-76
2021/07/01 10:04:56;;;;;;;13.13;8.95;;;34.90;38.50;;;;;;5036623;28;20080;-74
2021/07/01 10:07:24;;;;;;;9.98;6.25;;;34.60;38.30;;;;;;5035326;28;20140;-74
2021/07/01 10:09:55;;;;;;;12.30;6.85;;;35.10;38.40;;;;;;5036437;28;20026;-75
2021/07/01 10:12:22;;;;;;;10.77;6.20;;;35.80;37.40;;;;;;5034947;28;20406;-74
2021/07/01 10:14:49;;;;;;;9.80;6.35;;;35.10;37.70;;;;;;5036603;28;20029;-74
2021/07/01 10:17:19;;;;;;;11.65;6.80;;;34.50;38.70;;;;;;5036338;28;20017;-75
2021/07/01 10:19:46;;;;;;;10.77;6.63;;;35.30;37.70;;;;;;5036554;28;20071;-75
2021/07/01 10:22:19;;;;;;;10.50;6.57;;;35.80;36.70;;;;;;5036369;28;20021;-77
2021/07/01 10:24:57;;;;;;;11.10;6.30;;;34.90;38.50;;;;;;5036839;28;20104;-75
2021/07/01 10:27:31;;;;;;;8.95;6.28;;;36.80;35.90;;;;;;5036308;28;20029;-76
2021/07/01 10:29:59;;;;;;;10.93;6.78;;;36.60;36.30;;;;;;5036487;28;20026;-75
2021/07/01 10:32:48;;;;;;;11.57;6.45;;;35.80;36.90;;;;;;5036153;28;20022;-75
2021/07/01 10:35:32;;;;;;;9.43;5.75;;;35.20;37.20;;;;;;5036623;28;20378;-75
2021/07/01 10:38:09;;;;;;;9.45;5.10;;;35.10;37.60;;;;;;5034572;28;20444;-75
2021/07/01 10:40:48;;;;;;;9.30;5.20;;;35.60;38.00;;;;;;5036289;28;20018;-74
2021/07/01 10:43:16;;;;;;;9.40;5.38;;;38.00;35.40;;;;;;5034700;28;20044;-77
2021/07/01 10:45:58;;;;;;;9.80;5.60;;;38.90;33.80;;;;;;5035002;28;20450;-76
2021/07/01 10:48:26;;;;;;;8.27;4.80;;;39.60;33.00;;;;;;5036013;28;20506;-74
2021/07/01 10:50:54;;;;;;;7.90;4.53;;;39.50;33.40;;;;;;5034791;28;20029;-77
2021/07/01 10:53:42;;;;;;;9.77;5.25;;;39.00;32.70;;;;;;5035929;28;20021;-73
2021/07/01 10:56:17;;;;;;;10.18;4.90;;;38.30;33.10;;;;;;5035823;28;20029;-73
2021/07/01 10:58:53;;;;;;;8.88;4.70;;;36.80;35.30;;;;;;5034071;28;20026;-77
2021/07/01 11:01:25;;;;;;;8.50;4.90;;;35.80;36.80;;;;;;5035657;28;20025;-74
2021/07/01 11:04:13;;;;;;;8.82;4.40;;;35.30;37.20;;;;;;5035178;28;20025;-75
2021/07/01 11:06:44;;;;;;;10.57;5.30;;;34.80;37.80;;;;;;5035080;28;20025;-77
2021/07/01 11:09:13;;;;;;;9.55;4.90;;;34.80;38.10;;;;;;5035383;28;20025;-76
2021/07/01 11:11:42;;;;;;;9.73;5.10;;;35.20;38.60;;;;;;5035072;28;20018;-74
2021/07/01 11:14:12;;;;;;;7.72;4.63;;;37.20;35.30;;;;;;5035400;28;20079;-75
2021/07/01 11:16:42;;;;;;;8.32;5.03;;;38.60;34.10;;;;;;5035410;28;20086;-74
2021/07/01 11:19:13;;;;;;;8.95;5.30;;;38.80;34.20;;;;;;5035025;28;20478;-74
2021/07/01 11:21:52;;;;;;;9.23;4.70;;;37.80;33.80;;;;;;5035405;28;20029;-75
2021/07/01 11:24:23;;;;;;;9.30;5.05;;;37.30;35.60;;;;;;5035332;28;20490;-77
2021/07/01 11:26:57;;;;;;;8.57;4.65;;;36.60;35.80;;;;;;5035207;28;20117;-75
2021/07/01 11:29:46;;;;;;;9.32;4.65;;;35.30;37.50;;;;;;5035470;28;20033;-73
2021/07/01 11:32:20;;;;;;;11.75;4.50;;;34.10;38.90;;;;;;5034802;28;20076;-75
2021/07/01 11:34:49;;;;;;;8.50;4.30;;;33.40;39.80;;;;;;5034886;28;20032;-74
2021/07/01 11:37:16;;;;;;;8.18;4.60;;;32.10;41.00;;;;;;5034733;28;20049;-76
2021/07/01 11:39:44;;;;;;;8.18;3.95;;;31.50;41.70;;;;;;5034636;28;20022;-75
2021/07/01 11:42:11;;;;;;;9.93;5.22;;;31.00;42.60;;;;;;5034298;28;20049;-76
2021/07/01 11:44:40;;;;;;;10.60;4.20;;;31.10;41.80;;;;;;5034437;28;20022;-75
2021/07/01 11:47:08;;;;;;;8.65;4.70;;;31.10;42.70;;;;;;5034297;28;20108;-76
2021/07/01 11:49:35;;;;;;;8.98;4.32;;;32.00;40.70;;;;;;5034780;28;20216;-74
2021/07/01 11:52:01;;;;;;;9.23;4.43;;;33.00;40.30;;;;;;5034467;28;20381;-76
2021/07/01 11:54:27;;;;;;;9.20;4.35;;;34.50;37.60;;;;;;5034252;28;20028;-76
2021/07/01 11:57:00;;;;;;;8.57;4.20;;;35.80;36.70;;;;;;5034009;28;20087;-74
2021/07/01 11:59:31;;;;;;;7.57;4.30;;;36.70;35.70;;;;;;5034401;28;20509;-76
2021/07/01 12:01:59;;;;;;;8.20;4.40;;;37.00;34.90;;;;;;5034093;28;20036;-74
2021/07/01 12:04:36;;;;;;;7.28;3.70;;;37.20;34.60;;;;;;5034496;28;20030;-77
2021/07/01 12:07:24;;;;;;;7.60;4.10;;;37.60;34.60;;;;;;5034369;28;20029;-75
2021/07/01 12:09:51;;;;;;;8.18;4.50;;;37.80;34.10;;;;;;5033888;28;20030;-75
2021/07/01 12:12:26;;;;;;;9.43;4.38;;;36.70;34.40;;;;;;5032921;28;20022;-75
2021/07/01 12:15:06;;;;;;;7.85;3.95;;;35.30;36.10;;;;;;5034067;28;20026;-75
2021/07/01 12:17:52;;;;;;;8.60;4.00;;;34.40;37.40;;;;;;5033291;28;20021;-74
2021/07/01 12:20:40;;;;;;;7.15;3.72;;;34.20;38.30;;;;;;5034212;28;20038;-74
2021/07/01 12:23:12;;;;;;;7.57;3.83;;;34.50;37.90;;;;;;5032436;28;20025;-74
2021/07/01 12:25:38;;;;;;;9.23;3.85;;;34.50;37.70;;;;;;5033572;28;20033;-74
2021/07/01 12:28:06;;;;;;;6.53;3.40;;;34.60;37.70;;;;;;5033642;28;20074;-76
2021/07/01 12:31:07;;;;;;;11.02;3.60;;;34.50;37.60;;;;;;5033678;28;20030;-74
2021/07/01 12:33:38;;;;;;;6.85;3.63;;;34.10;37.10;;;;;;5033871;28;20021;-77
2021/07/01 12:36:18;;;;;;;7.00;3.60;;;34.40;37.30;;;;;;5033478;28;20032;-75
2021/07/01 12:39:08;;;;;;;8.13;4.00;;;36.40;35.40;;;;;;5033121;28;20064;-75
2021/07/01 12:41:39;;;;;;;7.88;4.28;;;36.90;34.30;;;;;;5032301;28;20036;-74
2021/07/01 12:44:09;;;;;;;7.18;3.83;;;37.10;34.10;;;;;;5033781;28;20021;-73
2021/07/01 12:46:44;;;;;;;7.38;3.90;;;35.60;35.90;;;;;;5033592;28;20075;-75
2021/07/01 12:49:20;;;;;;;7.68;4.03;;;34.60;37.60;;;;;;5031967;28;20022;-75
2021/07/01 12:51:54;;;;;;;7.28;3.40;;;34.00;38.70;;;;;;5032386;28;20125;-76
2021/07/01 12:54:22;;;;;;;9.10;3.80;;;34.00;38.50;;;;;;5033489;28;20101;-74
2021/07/01 12:56:50;;;;;;;9.40;3.70;;;33.40;39.10;;;;;;5031995;28;20128;-73
2021/07/01 12:59:16;;;;;;;7.63;3.80;;;32.00;41.20;;;;;;5033475;28;20017;-75